createdAt,value
2018-07-16T00:03:12.620Z,9.48
2018-07-16T00:08:16.132Z,10.30
2018-07-16T00:13:19.507Z,8.30
2018-07-16T00:18:23.063Z,7.40
2018-07-16T00:23:26.750Z,7.53
2018-07-16T00:28:30.581Z,6.60
2018-07-16T00:33:35.571Z,7.00
2018-07-16T00:38:40.842Z,7.60
2018-07-16T00:43:45.334Z,7.97
2018-07-16T00:48:49.685Z,7.12
2018-07-16T00:53:55.051Z,5.70
2018-07-16T00:59:02.469Z,6.67
2018-07-16T01:04:10.927Z,6.08
2018-07-16T01:09:15.242Z,6.50
2018-07-16T01:14:24.025Z,8.85
2018-07-16T01:19:28.266Z,9.10
2018-07-16T01:24:34.870Z,9.17
2018-07-16T01:29:44.306Z,8.80
2018-07-16T01:34:52.129Z,9.43
2018-07-16T01:40:01.846Z,9.17
2018-07-16T01:45:06.121Z,8.70
2018-07-16T01:50:11.831Z,9.08
2018-07-16T01:55:17.002Z,9.40
2018-07-16T02:00:21.379Z,10.48
2018-07-16T02:05:35.147Z,11.57
2018-07-16T02:10:41.327Z,10.65
2018-07-16T02:15:57.746Z,11.40
2018-07-16T02:21:07.955Z,9.75
2018-07-16T02:26:21.266Z,10.18
2018-07-16T02:31:38.784Z,11.27
2018-07-16T02:36:51.186Z,11.38
2018-07-16T02:42:00.101Z,11.37
2018-07-16T02:47:26.183Z,11.40
2018-07-16T02:52:36.508Z,11.20
2018-07-16T02:57:53.580Z,11.03
2018-07-16T03:03:05.306Z,10.43
2018-07-16T03:13:46.401Z,9.10
2018-07-16T03:18:52.839Z,10.43
2018-07-16T03:23:57.902Z,11.70
2018-07-16T03:29:02.884Z,11.00
2018-07-16T03:34:12.060Z,10.50
2018-07-16T03:39:17.247Z,10.53
2018-07-16T03:44:23.837Z,11.48
2018-07-16T03:49:35.657Z,11.60
2018-07-16T03:54:40.863Z,11.60
2018-07-16T03:59:51.860Z,10.60
2018-07-16T04:04:55.955Z,11.90
2018-07-16T04:10:02.987Z,11.57
2018-07-16T04:15:07.333Z,11.50
2018-07-16T04:20:11.381Z,12.68
2018-07-16T04:25:16.501Z,12.90
2018-07-16T04:30:21.486Z,11.97
2018-07-16T04:35:25.547Z,11.08
2018-07-16T04:40:29.306Z,11.60
2018-07-16T04:45:34.164Z,11.97
2018-07-16T04:50:45.646Z,9.80
2018-07-16T04:55:58.231Z,10.35
2018-07-16T05:01:11.073Z,11.95
2018-07-16T05:06:26.016Z,11.13
2018-07-16T05:11:36.496Z,9.07
2018-07-16T05:16:46.786Z,10.08
2018-07-16T05:21:54.682Z,10.90
2018-07-16T05:27:10.184Z,12.73
2018-07-16T05:32:21.990Z,10.10
2018-07-16T05:42:59.784Z,10.25
2018-07-16T05:48:18.276Z,9.80
2018-07-16T05:53:24.348Z,11.50
2018-07-16T05:58:30.696Z,10.55
2018-07-16T06:03:37.571Z,10.60
2018-07-16T06:08:47.807Z,10.30
2018-07-16T06:13:55.180Z,10.23
2018-07-16T06:19:00.879Z,8.65
2018-07-16T06:24:06.330Z,9.03
2018-07-16T06:29:12.806Z,8.50
2018-07-16T06:34:18.250Z,9.50
2018-07-16T06:39:25.152Z,9.35
2018-07-16T06:44:40.045Z,9.60
2018-07-16T06:49:46.839Z,10.25
2018-07-16T06:55:10.252Z,9.70
2018-07-16T07:00:14.953Z,9.40
2018-07-16T07:05:18.958Z,10.20
2018-07-16T07:10:26.232Z,8.90
2018-07-16T07:15:31.131Z,9.40
2018-07-16T07:20:38.063Z,8.90
2018-07-16T07:25:48.047Z,9.70
2018-07-16T07:30:57.439Z,8.73
2018-07-16T07:36:10.692Z,9.55
2018-07-16T07:41:28.948Z,9.00
2018-07-16T07:46:37.561Z,9.50
2018-07-16T07:51:47.687Z,9.40
2018-07-16T07:56:56.448Z,9.23
2018-07-16T08:02:01.361Z,9.10
2018-07-16T08:07:14.712Z,8.60
2018-07-16T08:12:23.540Z,8.20
2018-07-16T08:17:30.324Z,7.72
2018-07-16T08:22:37.175Z,8.50
2018-07-16T08:27:40.746Z,7.70
2018-07-16T08:32:44.502Z,7.80
2018-07-16T08:37:48.125Z,7.90
2018-07-16T08:42:51.645Z,7.50
2018-07-16T08:47:55.153Z,7.45
2018-07-16T08:52:58.791Z,7.00
2018-07-16T08:58:02.431Z,7.25
2018-07-16T09:03:06.095Z,6.07
2018-07-16T09:08:09.855Z,6.20
2018-07-16T09:13:13.616Z,6.13
2018-07-16T09:18:18.890Z,6.28
2018-07-16T09:23:22.783Z,5.30
2018-07-16T09:28:27.894Z,5.70
2018-07-16T09:33:31.966Z,5.10
2018-07-16T09:38:40.556Z,5.00
2018-07-16T09:43:57.507Z,5.00
2018-07-16T09:54:53.410Z,5.10
2018-07-16T09:59:57.380Z,4.70
2018-07-16T10:05:01.536Z,4.60
2018-07-16T10:15:32.992Z,4.65
2018-07-16T10:20:38.958Z,4.78
2018-07-16T10:25:46.925Z,4.40
2018-07-16T10:42:16.693Z,4.70
2018-07-16T10:47:21.317Z,5.73
2018-07-16T10:52:25.399Z,5.00
2018-07-16T10:57:29.123Z,4.62
2018-07-16T11:02:33.222Z,4.40
2018-07-16T11:07:37.503Z,4.45
2018-07-16T11:12:41.259Z,4.65
2018-07-16T11:17:45.807Z,4.80
2018-07-16T11:22:49.460Z,3.80
2018-07-16T11:27:53.245Z,3.83
2018-07-16T11:32:56.999Z,3.90
2018-07-16T11:38:00.909Z,3.60
2018-07-16T11:43:04.590Z,3.30
2018-07-16T11:48:08.264Z,3.80
2018-07-16T11:53:12.001Z,3.40
2018-07-16T11:58:22.716Z,3.25
2018-07-16T12:03:26.336Z,3.10
2018-07-16T12:08:36.145Z,3.90
2018-07-16T12:14:05.606Z,3.20
2018-07-16T12:19:09.239Z,3.00
2018-07-16T12:24:39.785Z,2.80
2018-07-16T12:36:09.173Z,2.90
2018-07-16T12:41:13.754Z,3.17
2018-07-16T12:46:18.703Z,3.12
2018-07-16T12:51:27.874Z,3.05
2018-07-16T13:13:15.719Z,3.20
2018-07-16T13:18:19.479Z,3.40
2018-07-16T13:23:23.186Z,3.47
2018-07-16T13:28:26.745Z,3.30
2018-07-16T13:33:32.295Z,3.40
2018-07-16T13:38:37.043Z,3.10
2018-07-16T13:43:40.590Z,3.30
2018-07-16T13:48:44.142Z,3.40
2018-07-16T13:53:47.718Z,2.80
2018-07-16T13:59:13.721Z,2.75
2018-07-16T14:04:18.563Z,3.00
2018-07-16T14:09:22.155Z,3.30
2018-07-16T14:14:30.373Z,3.27
2018-07-16T14:19:34.064Z,3.20
2018-07-16T14:24:38.691Z,3.30
2018-07-16T14:29:42.504Z,3.22
2018-07-16T14:34:46.072Z,2.90
2018-07-16T14:39:49.669Z,2.60
2018-07-16T14:44:53.283Z,2.60
2018-07-16T14:49:57.208Z,2.90
2018-07-16T14:55:01.795Z,2.65
2018-07-16T15:00:07.784Z,2.60
2018-07-16T15:05:11.495Z,2.95
2018-07-16T15:10:15.823Z,2.80
2018-07-16T15:15:22.470Z,3.00
2018-07-16T15:20:26.080Z,2.87
2018-07-16T15:25:29.520Z,2.70
2018-07-16T15:30:33.061Z,2.70
2018-07-16T15:35:37.760Z,2.80
2018-07-16T15:40:41.223Z,2.90
2018-07-16T15:45:44.945Z,2.83
2018-07-16T15:50:48.949Z,2.90
2018-07-16T15:55:53.599Z,2.50
2018-07-16T16:00:56.966Z,2.90
2018-07-16T16:06:01.459Z,2.90
2018-07-16T16:11:04.900Z,2.90
2018-07-16T16:16:10.485Z,2.85
2018-07-16T16:21:13.876Z,3.00
2018-07-16T16:26:17.284Z,2.90
2018-07-16T16:50:50.429Z,3.50
2018-07-16T16:55:55.018Z,3.10
2018-07-16T17:01:03.158Z,3.20
2018-07-16T17:06:07.017Z,3.00
2018-07-16T17:11:14.093Z,3.27
2018-07-16T17:16:18.883Z,3.17
2018-07-16T17:21:22.647Z,3.00
2018-07-16T17:26:27.546Z,3.00
2018-07-16T17:31:31.349Z,3.30
2018-07-16T17:36:35.053Z,3.10
2018-07-16T17:41:38.371Z,3.00
2018-07-16T17:46:41.930Z,3.30
2018-07-16T17:51:49.135Z,3.25
2018-07-16T17:56:54.383Z,3.40
2018-07-16T18:01:59.899Z,3.63
2018-07-16T18:07:03.432Z,3.33
2018-07-16T18:12:06.928Z,3.47
2018-07-16T18:17:10.351Z,4.10
2018-07-16T18:22:13.692Z,9.63
2018-07-16T18:27:17.637Z,3.87
2018-07-16T18:32:21.058Z,3.10
2018-07-16T18:37:24.555Z,3.10
2018-07-16T18:42:27.939Z,3.33
2018-07-16T18:47:33.504Z,3.17
2018-07-16T18:52:38.579Z,3.20
2018-07-16T18:57:49.221Z,3.50
2018-07-16T19:02:54.704Z,3.30
2018-07-16T19:08:12.228Z,3.10
2018-07-16T19:13:17.358Z,3.20
2018-07-16T19:18:22.008Z,3.40
2018-07-16T19:23:25.327Z,2.93
2018-07-16T19:28:28.705Z,3.27
2018-07-16T19:33:31.930Z,3.40
2018-07-16T19:38:35.251Z,4.00
2018-07-16T19:43:38.574Z,3.20
2018-07-16T19:48:41.957Z,3.40
2018-07-16T19:53:45.288Z,3.90
2018-07-16T19:58:48.858Z,3.90
2018-07-16T20:03:52.335Z,4.10
2018-07-16T20:08:55.639Z,4.20
2018-07-16T20:13:58.934Z,5.10
2018-07-16T20:19:02.267Z,4.20
2018-07-16T20:24:05.589Z,4.10
2018-07-16T20:29:09.708Z,4.30
2018-07-16T20:34:14.596Z,5.00
2018-07-16T20:39:19.780Z,4.30
2018-07-16T20:44:23.117Z,4.07
2018-07-16T20:49:27.316Z,4.50
2018-07-16T20:54:30.716Z,4.55
2018-07-16T20:59:34.073Z,4.80
2018-07-16T21:04:37.342Z,4.90
2018-07-16T21:09:40.712Z,5.10
2018-07-16T21:14:44.059Z,5.60
2018-07-16T21:19:47.472Z,5.10
2018-07-16T21:24:50.881Z,5.40
2018-07-16T21:29:54.256Z,5.13
2018-07-16T21:35:00.519Z,5.00
2018-07-16T21:40:03.964Z,5.80
2018-07-16T21:45:07.272Z,4.87
2018-07-16T21:50:10.610Z,5.58
2018-07-16T21:55:13.956Z,4.65
2018-07-16T22:00:23.933Z,5.90
2018-07-16T22:05:28.038Z,5.60
2018-07-16T22:10:31.556Z,5.60
2018-07-16T22:15:35.885Z,5.72
2018-07-16T22:20:45.460Z,6.95
2018-07-16T22:25:49.203Z,5.90
2018-07-16T22:30:52.857Z,5.43
2018-07-16T22:35:56.305Z,5.25
2018-07-16T22:41:01.655Z,5.40
2018-07-16T22:46:13.694Z,6.90
2018-07-16T22:56:20.471Z,7.00
2018-07-16T23:01:24.851Z,6.78
2018-07-16T23:06:29.936Z,6.12
2018-07-16T23:11:34.111Z,7.27
2018-07-16T23:16:37.615Z,6.92
2018-07-16T23:21:41.816Z,7.47
2018-07-16T23:26:45.839Z,7.20
2018-07-16T23:31:49.203Z,6.90
2018-07-16T23:36:55.663Z,7.15
2018-07-16T23:41:58.908Z,7.10
2018-07-16T23:47:02.311Z,7.42
2018-07-16T23:52:05.726Z,6.97
2018-07-16T23:57:09.778Z,6.90
